sensor_id;sensor_type;location;lat;lon;timestamp;P1;durP1;ratioP1;P2;durP2;ratioP2
10529;SDS011;5313;48.834;9.228;2024-03-25T00:02:07;4.60;;;1.90;;
10529;SDS011;5313;48.834;9.228;2024-03-25T00:04:33;3.97;;;2.10;;
10529;SDS011;5313;48.834;9.228;2024-03-25T00:06:58;3.23;;;2.00;;
10529;SDS011;5313;48.834;9.228;2024-03-25T00:09:24;2.73;;;1.60;;
10529;SDS011;5313;48.834;9.228;2024-03-25T00:11:49;1.93;;;1.60;;
10529;SDS011;5313;48.834;9.228;2024-03-25T00:14:19;2.23;;;1.73;;
10529;SDS011;5313;48.834;9.228;2024-03-25T00:16:48;4.93;;;1.80;;
10529;SDS011;5313;48.834;9.228;2024-03-25T00:19:14;2.87;;;1.70;;
10529;SDS011;5313;48.834;9.228;2024-03-25T00:21:40;4.93;;;1.87;;
10529;SDS011;5313;48.834;9.228;2024-03-25T00:24:07;3.03;;;1.73;;
10529;SDS011;5313;48.834;9.228;2024-03-25T00:26:32;5.07;;;2.00;;
10529;SDS011;5313;48.834;9.228;2024-03-25T00:28:58;2.97;;;2.00;;
10529;SDS011;5313;48.834;9.228;2024-03-25T00:31:24;6.40;;;1.70;;
10529;SDS011;5313;48.834;9.228;2024-03-25T00:33:49;3.20;;;1.50;;
10529;SDS011;5313;48.834;9.228;2024-03-25T00:36:15;4.93;;;2.10;;
10529;SDS011;5313;48.834;9.228;2024-03-25T00:38:40;3.43;;;1.77;;
10529;SDS011;5313;48.834;9.228;2024-03-25T00:41:06;3.83;;;2.20;;
10529;SDS011;5313;48.834;9.228;2024-03-25T00:43:31;5.37;;;1.97;;
10529;SDS011;5313;48.834;9.228;2024-03-25T00:45:57;3.27;;;2.13;;
10529;SDS011;5313;48.834;9.228;2024-03-25T00:48:23;2.90;;;1.63;;
10529;SDS011;5313;48.834;9.228;2024-03-25T00:50:48;3.10;;;1.67;;
10529;SDS011;5313;48.834;9.228;2024-03-25T00:53:14;4.77;;;2.00;;
10529;SDS011;5313;48.834;9.228;2024-03-25T00:55:40;3.83;;;1.50;;
10529;SDS011;5313;48.834;9.228;2024-03-25T00:58:05;4.33;;;2.27;;
10529;SDS011;5313;48.834;9.228;2024-03-25T01:00:31;3.10;;;2.00;;
10529;SDS011;5313;48.834;9.228;2024-03-25T01:02:56;4.00;;;2.10;;
10529;SDS011;5313;48.834;9.228;2024-03-25T01:05:22;2.80;;;1.90;;
10529;SDS011;5313;48.834;9.228;2024-03-25T01:07:47;3.60;;;2.20;;
10529;SDS011;5313;48.834;9.228;2024-03-25T01:10:14;4.47;;;1.87;;
10529;SDS011;5313;48.834;9.228;2024-03-25T01:12:39;4.17;;;2.00;;
10529;SDS011;5313;48.834;9.228;2024-03-25T01:15:05;2.80;;;2.00;;
10529;SDS011;5313;48.834;9.228;2024-03-25T01:17:32;3.80;;;2.03;;
10529;SDS011;5313;48.834;9.228;2024-03-25T01:19:57;3.57;;;2.20;;
10529;SDS011;5313;48.834;9.228;2024-03-25T01:22:23;3.57;;;1.70;;
10529;SDS011;5313;48.834;9.228;2024-03-25T01:24:49;4.20;;;1.80;;
10529;SDS011;5313;48.834;9.228;2024-03-25T01:27:14;7.07;;;2.10;;
10529;SDS011;5313;48.834;9.228;2024-03-25T01:29:40;5.40;;;2.40;;
10529;SDS011;5313;48.834;9.228;2024-03-25T01:32:05;6.50;;;2.70;;
10529;SDS011;5313;48.834;9.228;2024-03-25T01:34:31;5.13;;;2.00;;
10529;SDS011;5313;48.834;9.228;2024-03-25T01:36:57;4.53;;;2.00;;
10529;SDS011;5313;48.834;9.228;2024-03-25T01:39:22;4.30;;;2.07;;
10529;SDS011;5313;48.834;9.228;2024-03-25T01:41:49;3.33;;;1.80;;
10529;SDS011;5313;48.834;9.228;2024-03-25T01:44:15;6.00;;;2.30;;
10529;SDS011;5313;48.834;9.228;2024-03-25T01:46:40;4.27;;;2.27;;
10529;SDS011;5313;48.834;9.228;2024-03-25T01:49:07;3.80;;;2.00;;
10529;SDS011;5313;48.834;9.228;2024-03-25T01:51:33;5.03;;;2.33;;
10529;SDS011;5313;48.834;9.228;2024-03-25T01:54:00;2.77;;;2.00;;
10529;SDS011;5313;48.834;9.228;2024-03-25T01:56:26;4.53;;;2.30;;
10529;SDS011;5313;48.834;9.228;2024-03-25T01:58:54;5.73;;;2.17;;
10529;SDS011;5313;48.834;9.228;2024-03-25T02:01:20;6.00;;;2.63;;
10529;SDS011;5313;48.834;9.228;2024-03-25T02:03:46;5.07;;;2.07;;
10529;SDS011;5313;48.834;9.228;2024-03-25T02:06:12;5.67;;;2.43;;
10529;SDS011;5313;48.834;9.228;2024-03-25T02:08:40;3.90;;;2.20;;
10529;SDS011;5313;48.834;9.228;2024-03-25T02:11:06;5.77;;;2.73;;
10529;SDS011;5313;48.834;9.228;2024-03-25T02:13:32;7.43;;;2.23;;
10529;SDS011;5313;48.834;9.228;2024-03-25T02:15:59;4.67;;;1.83;;
10529;SDS011;5313;48.834;9.228;2024-03-25T02:18:25;7.07;;;2.73;;
10529;SDS011;5313;48.834;9.228;2024-03-25T02:20:51;5.00;;;2.50;;
10529;SDS011;5313;48.834;9.228;2024-03-25T02:23:16;3.97;;;2.63;;
10529;SDS011;5313;48.834;9.228;2024-03-25T02:25:48;3.83;;;2.00;;
10529;SDS011;5313;48.834;9.228;2024-03-25T02:28:14;4.00;;;2.27;;
10529;SDS011;5313;48.834;9.228;2024-03-25T02:30:40;3.90;;;1.93;;
10529;SDS011;5313;48.834;9.228;2024-03-25T02:33:05;6.40;;;2.17;;
10529;SDS011;5313;48.834;9.228;2024-03-25T02:35:31;4.47;;;2.27;;
10529;SDS011;5313;48.834;9.228;2024-03-25T02:37:56;3.73;;;2.00;;
10529;SDS011;5313;48.834;9.228;2024-03-25T02:40:23;4.73;;;2.50;;
10529;SDS011;5313;48.834;9.228;2024-03-25T02:42:48;5.90;;;2.23;;
10529;SDS011;5313;48.834;9.228;2024-03-25T02:45:14;3.07;;;2.20;;
10529;SDS011;5313;48.834;9.228;2024-03-25T02:47:40;5.17;;;2.47;;
10529;SDS011;5313;48.834;9.228;2024-03-25T02:50:06;3.77;;;2.27;;
10529;SDS011;5313;48.834;9.228;2024-03-25T02:52:31;3.47;;;2.10;;
10529;SDS011;5313;48.834;9.228;2024-03-25T02:54:57;6.23;;;2.53;;
10529;SDS011;5313;48.834;9.228;2024-03-25T02:57:22;3.07;;;2.30;;
10529;SDS011;5313;48.834;9.228;2024-03-25T02:59:48;3.30;;;2.20;;
10529;SDS011;5313;48.834;9.228;2024-03-25T03:02:14;4.80;;;2.67;;
10529;SDS011;5313;48.834;9.228;2024-03-25T03:04:39;4.80;;;2.30;;
10529;SDS011;5313;48.834;9.228;2024-03-25T03:07:05;5.07;;;2.53;;
10529;SDS011;5313;48.834;9.228;2024-03-25T03:09:30;4.70;;;2.40;;
10529;SDS011;5313;48.834;9.228;2024-03-25T03:11:56;4.50;;;2.47;;
10529;SDS011;5313;48.834;9.228;2024-03-25T03:14:21;5.53;;;2.30;;
10529;SDS011;5313;48.834;9.228;2024-03-25T03:16:47;7.67;;;2.90;;
10529;SDS011;5313;48.834;9.228;2024-03-25T03:19:14;3.20;;;2.40;;
10529;SDS011;5313;48.834;9.228;2024-03-25T03:21:39;6.00;;;2.47;;
10529;SDS011;5313;48.834;9.228;2024-03-25T03:24:05;4.07;;;2.40;;
10529;SDS011;5313;48.834;9.228;2024-03-25T03:26:31;4.60;;;2.20;;
10529;SDS011;5313;48.834;9.228;2024-03-25T03:28:56;3.93;;;2.37;;
10529;SDS011;5313;48.834;9.228;2024-03-25T03:31:22;9.10;;;2.90;;
10529;SDS011;5313;48.834;9.228;2024-03-25T03:33:48;4.67;;;2.30;;
10529;SDS011;5313;48.834;9.228;2024-03-25T03:36:15;7.17;;;2.83;;
10529;SDS011;5313;48.834;9.228;2024-03-25T03:38:43;6.50;;;2.50;;
10529;SDS011;5313;48.834;9.228;2024-03-25T03:41:08;5.27;;;2.50;;
10529;SDS011;5313;48.834;9.228;2024-03-25T03:43:35;5.50;;;2.57;;
10529;SDS011;5313;48.834;9.228;2024-03-25T03:46:00;6.27;;;2.50;;
10529;SDS011;5313;48.834;9.228;2024-03-25T03:48:27;5.87;;;2.43;;
10529;SDS011;5313;48.834;9.228;2024-03-25T03:50:52;5.43;;;2.60;;
10529;SDS011;5313;48.834;9.228;2024-03-25T03:53:18;5.63;;;2.53;;
10529;SDS011;5313;48.834;9.228;2024-03-25T03:55:52;6.27;;;3.03;;
10529;SDS011;5313;48.834;9.228;2024-03-25T03:58:18;7.20;;;2.93;;
10529;SDS011;5313;48.834;9.228;2024-03-25T04:00:44;6.13;;;2.70;;
10529;SDS011;5313;48.834;9.228;2024-03-25T04:03:09;4.77;;;3.40;;
10529;SDS011;5313;48.834;9.228;2024-03-25T04:05:35;5.53;;;2.80;;
10529;SDS011;5313;48.834;9.228;2024-03-25T04:08:00;4.40;;;2.90;;
10529;SDS011;5313;48.834;9.228;2024-03-25T04:10:26;5.97;;;2.90;;
10529;SDS011;5313;48.834;9.228;2024-03-25T04:12:52;3.70;;;2.43;;
10529;SDS011;5313;48.834;9.228;2024-03-25T04:15:17;6.33;;;2.50;;
10529;SDS011;5313;48.834;9.228;2024-03-25T04:17:44;5.53;;;2.53;;
10529;SDS011;5313;48.834;9.228;2024-03-25T04:20:13;3.27;;;2.40;;
10529;SDS011;5313;48.834;9.228;2024-03-25T04:22:43;6.20;;;3.27;;
10529;SDS011;5313;48.834;9.228;2024-03-25T04:25:09;3.93;;;2.63;;
10529;SDS011;5313;48.834;9.228;2024-03-25T04:27:42;6.60;;;2.83;;
10529;SDS011;5313;48.834;9.228;2024-03-25T04:30:08;3.57;;;2.50;;
10529;SDS011;5313;48.834;9.228;2024-03-25T04:32:36;5.60;;;2.47;;
10529;SDS011;5313;48.834;9.228;2024-03-25T04:35:02;4.50;;;2.60;;
10529;SDS011;5313;48.834;9.228;2024-03-25T04:37:28;6.50;;;2.77;;
10529;SDS011;5313;48.834;9.228;2024-03-25T04:39:54;4.53;;;2.80;;
10529;SDS011;5313;48.834;9.228;2024-03-25T04:42:21;5.97;;;2.73;;
10529;SDS011;5313;48.834;9.228;2024-03-25T04:44:47;5.87;;;2.50;;
10529;SDS011;5313;48.834;9.228;2024-03-25T04:47:12;5.50;;;2.60;;
10529;SDS011;5313;48.834;9.228;2024-03-25T04:49:40;7.17;;;2.60;;
10529;SDS011;5313;48.834;9.228;2024-03-25T04:52:06;5.77;;;2.67;;
10529;SDS011;5313;48.834;9.228;2024-03-25T04:54:31;5.70;;;2.90;;
10529;SDS011;5313;48.834;9.228;2024-03-25T04:56:57;6.07;;;2.47;;
10529;SDS011;5313;48.834;9.228;2024-03-25T04:59:22;4.10;;;2.63;;
10529;SDS011;5313;48.834;9.228;2024-03-25T05:01:48;5.20;;;2.53;;
10529;SDS011;5313;48.834;9.228;2024-03-25T05:04:13;10.70;;;2.70;;
10529;SDS011;5313;48.834;9.228;2024-03-25T05:06:39;4.40;;;2.80;;
10529;SDS011;5313;48.834;9.228;2024-03-25T05:09:04;4.50;;;2.50;;
10529;SDS011;5313;48.834;9.228;2024-03-25T05:11:33;6.37;;;3.00;;
10529;SDS011;5313;48.834;9.228;2024-03-25T05:13:58;6.03;;;2.70;;
10529;SDS011;5313;48.834;9.228;2024-03-25T05:16:24;5.93;;;2.60;;
10529;SDS011;5313;48.834;9.228;2024-03-25T05:18:50;4.23;;;2.90;;
10529;SDS011;5313;48.834;9.228;2024-03-25T05:21:15;9.27;;;2.90;;
10529;SDS011;5313;48.834;9.228;2024-03-25T05:23:41;6.37;;;2.93;;
10529;SDS011;5313;48.834;9.228;2024-03-25T05:26:07;9.60;;;3.23;;
10529;SDS011;5313;48.834;9.228;2024-03-25T05:28:33;7.60;;;3.00;;
10529;SDS011;5313;48.834;9.228;2024-03-25T05:31:05;6.67;;;3.07;;
10529;SDS011;5313;48.834;9.228;2024-03-25T05:33:31;5.23;;;2.97;;
10529;SDS011;5313;48.834;9.228;2024-03-25T05:35:58;3.80;;;2.50;;
10529;SDS011;5313;48.834;9.228;2024-03-25T05:38:23;6.77;;;3.03;;
10529;SDS011;5313;48.834;9.228;2024-03-25T05:40:49;6.67;;;3.03;;
10529;SDS011;5313;48.834;9.228;2024-03-25T05:43:15;5.87;;;2.57;;
10529;SDS011;5313;48.834;9.228;2024-03-25T05:45:40;5.93;;;2.90;;
10529;SDS011;5313;48.834;9.228;2024-03-25T05:48:06;7.13;;;2.77;;
10529;SDS011;5313;48.834;9.228;2024-03-25T05:50:31;7.73;;;2.80;;
10529;SDS011;5313;48.834;9.228;2024-03-25T05:52:57;5.30;;;2.77;;
10529;SDS011;5313;48.834;9.228;2024-03-25T05:55:22;6.37;;;2.90;;
10529;SDS011;5313;48.834;9.228;2024-03-25T05:57:48;6.03;;;3.00;;
10529;SDS011;5313;48.834;9.228;2024-03-25T06:00:13;4.50;;;2.83;;
10529;SDS011;5313;48.834;9.228;2024-03-25T06:02:39;7.67;;;3.30;;
10529;SDS011;5313;48.834;9.228;2024-03-25T06:05:05;8.87;;;3.37;;
10529;SDS011;5313;48.834;9.228;2024-03-25T06:07:30;6.33;;;2.87;;
10529;SDS011;5313;48.834;9.228;2024-03-25T06:09:56;4.57;;;3.33;;
10529;SDS011;5313;48.834;9.228;2024-03-25T06:12:21;9.53;;;3.63;;
10529;SDS011;5313;48.834;9.228;2024-03-25T06:14:47;5.90;;;3.33;;
10529;SDS011;5313;48.834;9.228;2024-03-25T06:17:12;7.60;;;3.30;;
10529;SDS011;5313;48.834;9.228;2024-03-25T06:19:38;5.60;;;2.97;;
10529;SDS011;5313;48.834;9.228;2024-03-25T06:22:03;4.30;;;2.83;;
10529;SDS011;5313;48.834;9.228;2024-03-25T06:24:29;7.30;;;3.57;;
10529;SDS011;5313;48.834;9.228;2024-03-25T06:26:54;7.73;;;3.40;;
10529;SDS011;5313;48.834;9.228;2024-03-25T06:29:20;6.90;;;2.77;;
10529;SDS011;5313;48.834;9.228;2024-03-25T06:31:47;8.00;;;3.30;;
10529;SDS011;5313;48.834;9.228;2024-03-25T06:34:31;4.13;;;3.03;;
10529;SDS011;5313;48.834;9.228;2024-03-25T06:36:56;7.80;;;3.30;;
10529;SDS011;5313;48.834;9.228;2024-03-25T06:39:22;5.47;;;3.10;;
10529;SDS011;5313;48.834;9.228;2024-03-25T06:41:47;4.80;;;2.87;;
10529;SDS011;5313;48.834;9.228;2024-03-25T06:44:13;5.57;;;3.17;;
10529;SDS011;5313;48.834;9.228;2024-03-25T06:46:38;6.20;;;3.00;;
10529;SDS011;5313;48.834;9.228;2024-03-25T06:49:04;8.00;;;3.40;;
10529;SDS011;5313;48.834;9.228;2024-03-25T06:51:29;6.47;;;3.43;;
10529;SDS011;5313;48.834;9.228;2024-03-25T06:53:55;4.27;;;3.00;;
10529;SDS011;5313;48.834;9.228;2024-03-25T06:56:21;5.67;;;3.23;;
10529;SDS011;5313;48.834;9.228;2024-03-25T06:58:46;4.83;;;2.60;;
10529;SDS011;5313;48.834;9.228;2024-03-25T07:01:12;4.63;;;3.00;;
10529;SDS011;5313;48.834;9.228;2024-03-25T07:03:37;7.67;;;3.13;;
10529;SDS011;5313;48.834;9.228;2024-03-25T07:06:03;4.87;;;3.07;;
10529;SDS011;5313;48.834;9.228;2024-03-25T07:08:30;4.43;;;3.00;;
10529;SDS011;5313;48.834;9.228;2024-03-25T07:10:56;5.87;;;2.97;;
10529;SDS011;5313;48.834;9.228;2024-03-25T07:13:21;8.10;;;2.97;;
10529;SDS011;5313;48.834;9.228;2024-03-25T07:15:47;6.17;;;2.90;;
10529;SDS011;5313;48.834;9.228;2024-03-25T07:18:13;6.03;;;2.90;;
10529;SDS011;5313;48.834;9.228;2024-03-25T07:20:39;6.73;;;3.07;;
10529;SDS011;5313;48.834;9.228;2024-03-25T07:23:05;5.00;;;2.77;;
10529;SDS011;5313;48.834;9.228;2024-03-25T07:25:31;3.37;;;2.50;;
10529;SDS011;5313;48.834;9.228;2024-03-25T07:27:56;8.03;;;3.30;;
10529;SDS011;5313;48.834;9.228;2024-03-25T07:30:22;5.30;;;2.97;;
10529;SDS011;5313;48.834;9.228;2024-03-25T07:32:52;7.07;;;3.47;;
10529;SDS011;5313;48.834;9.228;2024-03-25T07:35:18;6.20;;;2.87;;
10529;SDS011;5313;48.834;9.228;2024-03-25T07:37:43;6.37;;;2.80;;
10529;SDS011;5313;48.834;9.228;2024-03-25T07:40:09;7.50;;;3.00;;
10529;SDS011;5313;48.834;9.228;2024-03-25T07:42:36;6.87;;;2.90;;
10529;SDS011;5313;48.834;9.228;2024-03-25T07:45:02;3.90;;;2.70;;
10529;SDS011;5313;48.834;9.228;2024-03-25T07:47:29;5.80;;;2.80;;
10529;SDS011;5313;48.834;9.228;2024-03-25T07:49:55;5.47;;;3.00;;
10529;SDS011;5313;48.834;9.228;2024-03-25T07:52:21;4.87;;;2.93;;
10529;SDS011;5313;48.834;9.228;2024-03-25T07:54:46;4.63;;;2.77;;
10529;SDS011;5313;48.834;9.228;2024-03-25T07:57:12;6.53;;;2.70;;
10529;SDS011;5313;48.834;9.228;2024-03-25T07:59:38;5.67;;;2.63;;
10529;SDS011;5313;48.834;9.228;2024-03-25T08:02:03;4.00;;;2.60;;
10529;SDS011;5313;48.834;9.228;2024-03-25T08:04:29;4.87;;;2.37;;
10529;SDS011;5313;48.834;9.228;2024-03-25T08:06:54;5.30;;;2.53;;
10529;SDS011;5313;48.834;9.228;2024-03-25T08:09:20;7.03;;;2.60;;
10529;SDS011;5313;48.834;9.228;2024-03-25T08:11:45;6.70;;;2.47;;
10529;SDS011;5313;48.834;9.228;2024-03-25T08:14:11;5.33;;;2.27;;
10529;SDS011;5313;48.834;9.228;2024-03-25T08:16:37;4.13;;;2.07;;
10529;SDS011;5313;48.834;9.228;2024-03-25T08:19:03;5.60;;;2.57;;
10529;SDS011;5313;48.834;9.228;2024-03-25T08:21:28;3.20;;;2.00;;
10529;SDS011;5313;48.834;9.228;2024-03-25T08:23:54;4.67;;;2.80;;
10529;SDS011;5313;48.834;9.228;2024-03-25T08:26:20;6.80;;;2.33;;
10529;SDS011;5313;48.834;9.228;2024-03-25T08:28:46;3.33;;;1.73;;
10529;SDS011;5313;48.834;9.228;2024-03-25T08:31:13;5.80;;;2.00;;
10529;SDS011;5313;48.834;9.228;2024-03-25T08:33:39;4.37;;;2.30;;
10529;SDS011;5313;48.834;9.228;2024-03-25T08:36:04;4.27;;;2.37;;
10529;SDS011;5313;48.834;9.228;2024-03-25T08:38:30;3.40;;;1.80;;
10529;SDS011;5313;48.834;9.228;2024-03-25T08:40:55;3.20;;;1.87;;
10529;SDS011;5313;48.834;9.228;2024-03-25T08:43:21;3.93;;;1.80;;
10529;SDS011;5313;48.834;9.228;2024-03-25T08:45:46;4.03;;;2.10;;
10529;SDS011;5313;48.834;9.228;2024-03-25T08:48:12;3.77;;;2.70;;
10529;SDS011;5313;48.834;9.228;2024-03-25T08:50:37;4.17;;;2.53;;
10529;SDS011;5313;48.834;9.228;2024-03-25T08:53:03;5.10;;;2.03;;
10529;SDS011;5313;48.834;9.228;2024-03-25T08:55:29;4.47;;;1.90;;
10529;SDS011;5313;48.834;9.228;2024-03-25T08:57:55;5.67;;;2.00;;
10529;SDS011;5313;48.834;9.228;2024-03-25T09:00:23;6.23;;;1.77;;
10529;SDS011;5313;48.834;9.228;2024-03-25T09:02:52;3.70;;;1.90;;
10529;SDS011;5313;48.834;9.228;2024-03-25T09:05:18;3.37;;;1.83;;
10529;SDS011;5313;48.834;9.228;2024-03-25T09:07:45;2.73;;;1.63;;
10529;SDS011;5313;48.834;9.228;2024-03-25T09:10:10;3.97;;;1.60;;
10529;SDS011;5313;48.834;9.228;2024-03-25T09:12:55;4.37;;;1.67;;
10529;SDS011;5313;48.834;9.228;2024-03-25T09:15:20;3.13;;;1.47;;
10529;SDS011;5313;48.834;9.228;2024-03-25T09:17:46;2.63;;;1.40;;
10529;SDS011;5313;48.834;9.228;2024-03-25T09:20:11;3.10;;;1.53;;
10529;SDS011;5313;48.834;9.228;2024-03-25T09:22:45;3.70;;;1.80;;
10529;SDS011;5313;48.834;9.228;2024-03-25T09:25:12;2.83;;;1.80;;
10529;SDS011;5313;48.834;9.228;2024-03-25T09:27:38;5.13;;;1.50;;
10529;SDS011;5313;48.834;9.228;2024-03-25T09:30:04;4.83;;;1.63;;
10529;SDS011;5313;48.834;9.228;2024-03-25T09:32:30;3.03;;;1.60;;
10529;SDS011;5313;48.834;9.228;2024-03-25T09:34:59;3.87;;;1.83;;
10529;SDS011;5313;48.834;9.228;2024-03-25T09:37:24;3.53;;;1.33;;
10529;SDS011;5313;48.834;9.228;2024-03-25T09:39:50;3.47;;;1.60;;
10529;SDS011;5313;48.834;9.228;2024-03-25T09:42:22;2.13;;;1.60;;
10529;SDS011;5313;48.834;9.228;2024-03-25T09:44:55;2.60;;;1.20;;
10529;SDS011;5313;48.834;9.228;2024-03-25T09:47:21;4.40;;;1.27;;
10529;SDS011;5313;48.834;9.228;2024-03-25T09:49:47;3.53;;;1.10;;
10529;SDS011;5313;48.834;9.228;2024-03-25T09:52:14;3.07;;;1.67;;
10529;SDS011;5313;48.834;9.228;2024-03-25T09:54:40;3.07;;;1.30;;
10529;SDS011;5313;48.834;9.228;2024-03-25T09:57:06;4.70;;;1.53;;
10529;SDS011;5313;48.834;9.228;2024-03-25T09:59:33;3.20;;;1.27;;
10529;SDS011;5313;48.834;9.228;2024-03-25T10:01:59;4.27;;;1.37;;
10529;SDS011;5313;48.834;9.228;2024-03-25T10:04:25;2.87;;;1.40;;
10529;SDS011;5313;48.834;9.228;2024-03-25T10:06:51;2.70;;;1.30;;
10529;SDS011;5313;48.834;9.228;2024-03-25T10:09:20;4.27;;;1.40;;
10529;SDS011;5313;48.834;9.228;2024-03-25T10:11:49;2.50;;;1.20;;
10529;SDS011;5313;48.834;9.228;2024-03-25T10:14:18;2.53;;;1.43;;
10529;SDS011;5313;48.834;9.228;2024-03-25T10:16:48;3.10;;;1.43;;
10529;SDS011;5313;48.834;9.228;2024-03-25T10:19:16;1.67;;;1.13;;
10529;SDS011;5313;48.834;9.228;2024-03-25T10:21:42;2.53;;;1.30;;
10529;SDS011;5313;48.834;9.228;2024-03-25T10:24:07;3.40;;;1.20;;
10529;SDS011;5313;48.834;9.228;2024-03-25T10:26:33;3.03;;;1.33;;
10529;SDS011;5313;48.834;9.228;2024-03-25T10:29:06;3.37;;;1.23;;
10529;SDS011;5313;48.834;9.228;2024-03-25T10:31:32;2.73;;;1.30;;
10529;SDS011;5313;48.834;9.228;2024-03-25T10:33:57;3.27;;;1.30;;
10529;SDS011;5313;48.834;9.228;2024-03-25T10:36:23;3.50;;;1.30;;
10529;SDS011;5313;48.834;9.228;2024-03-25T10:38:51;2.50;;;1.20;;
10529;SDS011;5313;48.834;9.228;2024-03-25T10:41:22;2.67;;;1.33;;
10529;SDS011;5313;48.834;9.228;2024-03-25T10:43:50;5.13;;;1.77;;
10529;SDS011;5313;48.834;9.228;2024-03-25T10:46:19;1.83;;;1.00;;
10529;SDS011;5313;48.834;9.228;2024-03-25T10:51:19;4.17;;;1.23;;
10529;SDS011;5313;48.834;9.228;2024-03-25T10:53:48;3.47;;;1.33;;
10529;SDS011;5313;48.834;9.228;2024-03-25T10:56:17;2.53;;;1.20;;
10529;SDS011;5313;48.834;9.228;2024-03-25T10:58:47;1.17;;;1.07;;
10529;SDS011;5313;48.834;9.228;2024-03-25T11:01:18;3.40;;;1.30;;
10529;SDS011;5313;48.834;9.228;2024-03-25T11:03:47;1.37;;;0.93;;
10529;SDS011;5313;48.834;9.228;2024-03-25T11:06:14;3.33;;;1.10;;
10529;SDS011;5313;48.834;9.228;2024-03-25T11:08:41;2.47;;;1.40;;
10529;SDS011;5313;48.834;9.228;2024-03-25T11:11:11;2.90;;;1.30;;
10529;SDS011;5313;48.834;9.228;2024-03-25T11:13:37;3.07;;;1.40;;
10529;SDS011;5313;48.834;9.228;2024-03-25T11:16:03;4.23;;;1.50;;
10529;SDS011;5313;48.834;9.228;2024-03-25T11:18:29;3.30;;;1.23;;
10529;SDS011;5313;48.834;9.228;2024-03-25T11:21:03;4.07;;;1.33;;
10529;SDS011;5313;48.834;9.228;2024-03-25T11:23:43;3.17;;;1.23;;
10529;SDS011;5313;48.834;9.228;2024-03-25T11:26:19;4.13;;;1.30;;
10529;SDS011;5313;48.834;9.228;2024-03-25T11:28:55;1.70;;;1.37;;
10529;SDS011;5313;48.834;9.228;2024-03-25T11:31:21;2.90;;;1.60;;
10529;SDS011;5313;48.834;9.228;2024-03-25T11:33:49;3.97;;;1.47;;
10529;SDS011;5313;48.834;9.228;2024-03-25T11:36:15;2.73;;;1.30;;
10529;SDS011;5313;48.834;9.228;2024-03-25T11:38:40;3.80;;;1.50;;
10529;SDS011;5313;48.834;9.228;2024-03-25T11:41:08;4.33;;;1.50;;
10529;SDS011;5313;48.834;9.228;2024-03-25T11:43:36;2.73;;;1.50;;
10529;SDS011;5313;48.834;9.228;2024-03-25T11:46:01;3.10;;;1.50;;
10529;SDS011;5313;48.834;9.228;2024-03-25T11:48:28;2.33;;;1.63;;
10529;SDS011;5313;48.834;9.228;2024-03-25T11:50:54;2.83;;;1.53;;
10529;SDS011;5313;48.834;9.228;2024-03-25T11:53:20;3.80;;;1.53;;
10529;SDS011;5313;48.834;9.228;2024-03-25T11:55:46;3.13;;;1.53;;
10529;SDS011;5313;48.834;9.228;2024-03-25T11:58:12;3.20;;;1.60;;
10529;SDS011;5313;48.834;9.228;2024-03-25T12:00:45;2.60;;;1.50;;
10529;SDS011;5313;48.834;9.228;2024-03-25T12:03:14;3.07;;;1.40;;
10529;SDS011;5313;48.834;9.228;2024-03-25T12:05:40;2.57;;;1.67;;
10529;SDS011;5313;48.834;9.228;2024-03-25T12:08:08;3.70;;;1.57;;
10529;SDS011;5313;48.834;9.228;2024-03-25T12:10:35;2.60;;;1.60;;
10529;SDS011;5313;48.834;9.228;2024-03-25T12:13:20;3.73;;;1.63;;
10529;SDS011;5313;48.834;9.228;2024-03-25T12:15:46;3.37;;;1.50;;
10529;SDS011;5313;48.834;9.228;2024-03-25T12:18:13;2.90;;;1.60;;
10529;SDS011;5313;48.834;9.228;2024-03-25T12:20:39;2.53;;;1.60;;
10529;SDS011;5313;48.834;9.228;2024-03-25T12:23:05;3.20;;;1.50;;
10529;SDS011;5313;48.834;9.228;2024-03-25T12:25:30;4.23;;;1.80;;
10529;SDS011;5313;48.834;9.228;2024-03-25T12:27:56;2.77;;;1.70;;
10529;SDS011;5313;48.834;9.228;2024-03-25T12:30:22;3.43;;;1.70;;
10529;SDS011;5313;48.834;9.228;2024-03-25T12:32:48;1.93;;;1.37;;
10529;SDS011;5313;48.834;9.228;2024-03-25T12:35:15;2.73;;;1.70;;
10529;SDS011;5313;48.834;9.228;2024-03-25T12:37:43;2.60;;;1.60;;
10529;SDS011;5313;48.834;9.228;2024-03-25T12:40:10;2.87;;;1.40;;
10529;SDS011;5313;48.834;9.228;2024-03-25T12:42:37;3.23;;;1.80;;
10529;SDS011;5313;48.834;9.228;2024-03-25T12:45:04;4.40;;;1.57;;
10529;SDS011;5313;48.834;9.228;2024-03-25T12:47:31;5.50;;;1.87;;
10529;SDS011;5313;48.834;9.228;2024-03-25T12:49:57;2.37;;;1.43;;
10529;SDS011;5313;48.834;9.228;2024-03-25T12:52:22;3.20;;;1.60;;
10529;SDS011;5313;48.834;9.228;2024-03-25T12:54:48;3.53;;;1.80;;
10529;SDS011;5313;48.834;9.228;2024-03-25T12:57:14;3.37;;;1.77;;
10529;SDS011;5313;48.834;9.228;2024-03-25T12:59:39;3.03;;;1.70;;
10529;SDS011;5313;48.834;9.228;2024-03-25T13:02:05;4.57;;;1.83;;
10529;SDS011;5313;48.834;9.228;2024-03-25T13:04:35;3.80;;;1.50;;
10529;SDS011;5313;48.834;9.228;2024-03-25T13:07:02;2.30;;;1.30;;
10529;SDS011;5313;48.834;9.228;2024-03-25T13:09:28;3.47;;;1.70;;
10529;SDS011;5313;48.834;9.228;2024-03-25T13:11:54;3.60;;;1.77;;
10529;SDS011;5313;48.834;9.228;2024-03-25T13:14:21;3.57;;;1.37;;
10529;SDS011;5313;48.834;9.228;2024-03-25T13:16:47;2.80;;;1.47;;
10529;SDS011;5313;48.834;9.228;2024-03-25T13:19:13;2.50;;;1.60;;
10529;SDS011;5313;48.834;9.228;2024-03-25T13:21:38;2.33;;;1.43;;
10529;SDS011;5313;48.834;9.228;2024-03-25T13:24:04;4.23;;;1.73;;
10529;SDS011;5313;48.834;9.228;2024-03-25T13:26:30;1.90;;;1.40;;
10529;SDS011;5313;48.834;9.228;2024-03-25T13:28:55;3.70;;;1.60;;
10529;SDS011;5313;48.834;9.228;2024-03-25T13:31:21;2.73;;;1.33;;
10529;SDS011;5313;48.834;9.228;2024-03-25T13:33:46;3.27;;;1.40;;
10529;SDS011;5313;48.834;9.228;2024-03-25T13:36:12;4.40;;;1.60;;
10529;SDS011;5313;48.834;9.228;2024-03-25T13:38:37;4.13;;;1.50;;
10529;SDS011;5313;48.834;9.228;2024-03-25T13:41:03;3.43;;;1.30;;
10529;SDS011;5313;48.834;9.228;2024-03-25T13:43:29;3.40;;;1.57;;
10529;SDS011;5313;48.834;9.228;2024-03-25T13:45:55;3.23;;;1.80;;
10529;SDS011;5313;48.834;9.228;2024-03-25T13:48:20;2.33;;;1.50;;
10529;SDS011;5313;48.834;9.228;2024-03-25T13:50:47;3.47;;;1.50;;
10529;SDS011;5313;48.834;9.228;2024-03-25T13:53:13;3.03;;;1.57;;
10529;SDS011;5313;48.834;9.228;2024-03-25T13:55:39;3.10;;;1.60;;
10529;SDS011;5313;48.834;9.228;2024-03-25T13:58:05;2.40;;;1.37;;
10529;SDS011;5313;48.834;9.228;2024-03-25T14:00:31;1.70;;;1.10;;
10529;SDS011;5313;48.834;9.228;2024-03-25T14:02:58;2.80;;;1.43;;
10529;SDS011;5313;48.834;9.228;2024-03-25T14:05:24;6.33;;;1.37;;
10529;SDS011;5313;48.834;9.228;2024-03-25T14:07:50;2.77;;;1.20;;
10529;SDS011;5313;48.834;9.228;2024-03-25T14:10:16;2.00;;;1.50;;
10529;SDS011;5313;48.834;9.228;2024-03-25T14:12:42;2.83;;;1.23;;
10529;SDS011;5313;48.834;9.228;2024-03-25T14:15:08;2.67;;;1.40;;
10529;SDS011;5313;48.834;9.228;2024-03-25T14:17:34;3.93;;;1.77;;
10529;SDS011;5313;48.834;9.228;2024-03-25T14:20:00;3.00;;;1.30;;
10529;SDS011;5313;48.834;9.228;2024-03-25T14:22:25;2.43;;;1.27;;
10529;SDS011;5313;48.834;9.228;2024-03-25T14:24:51;1.73;;;1.20;;
10529;SDS011;5313;48.834;9.228;2024-03-25T14:27:22;3.43;;;1.40;;
10529;SDS011;5313;48.834;9.228;2024-03-25T14:29:51;2.10;;;1.17;;
10529;SDS011;5313;48.834;9.228;2024-03-25T14:32:20;3.20;;;1.20;;
10529;SDS011;5313;48.834;9.228;2024-03-25T14:34:46;3.63;;;1.40;;
10529;SDS011;5313;48.834;9.228;2024-03-25T14:37:12;2.93;;;1.50;;
10529;SDS011;5313;48.834;9.228;2024-03-25T14:39:38;3.30;;;1.50;;
10529;SDS011;5313;48.834;9.228;2024-03-25T14:42:04;2.23;;;1.10;;
10529;SDS011;5313;48.834;9.228;2024-03-25T14:44:30;3.60;;;1.40;;
10529;SDS011;5313;48.834;9.228;2024-03-25T14:46:55;3.07;;;1.57;;
10529;SDS011;5313;48.834;9.228;2024-03-25T14:49:22;3.77;;;1.53;;
10529;SDS011;5313;48.834;9.228;2024-03-25T14:51:49;2.60;;;1.40;;
10529;SDS011;5313;48.834;9.228;2024-03-25T14:54:14;2.93;;;1.13;;
10529;SDS011;5313;48.834;9.228;2024-03-25T14:56:40;4.40;;;1.73;;
10529;SDS011;5313;48.834;9.228;2024-03-25T14:59:05;3.40;;;1.30;;